createdAt,value
2023-05-13T00:00:59.547Z,8.65
2023-05-13T00:03:29.147Z,11.02
2023-05-13T00:05:58.634Z,10.38
2023-05-13T00:08:28.086Z,9.55
2023-05-13T00:10:57.467Z,8.32
2023-05-13T00:13:26.935Z,8.90
2023-05-13T00:15:56.320Z,8.75
2023-05-13T00:18:26.023Z,9.63
2023-05-13T00:20:56.444Z,8.10
2023-05-13T00:23:25.837Z,8.38
2023-05-13T00:25:55.252Z,9.30
2023-05-13T00:28:24.690Z,9.15
2023-05-13T00:30:54.153Z,10.98
2023-05-13T00:33:23.534Z,10.18
2023-05-13T00:35:52.911Z,7.97
2023-05-13T00:38:22.251Z,8.52
2023-05-13T00:40:52.690Z,12.65
2023-05-13T00:43:22.103Z,9.93
2023-05-13T00:45:51.688Z,10.73
2023-05-13T00:48:21.252Z,12.60
2023-05-13T00:50:50.922Z,8.57
2023-05-13T00:53:20.421Z,9.05
2023-05-13T00:55:49.933Z,7.75
2023-05-13T00:58:20.093Z,7.72
2023-05-13T01:00:58.687Z,9.38
2023-05-13T01:03:46.984Z,8.98
2023-05-13T01:06:18.377Z,11.98
2023-05-13T01:08:57.120Z,7.88
2023-05-13T01:11:30.903Z,9.77
2023-05-13T01:14:06.193Z,8.13
2023-05-13T01:16:42.983Z,13.18
2023-05-13T01:19:31.377Z,8.80
2023-05-13T01:22:00.867Z,9.70
2023-05-13T01:24:30.389Z,10.68
2023-05-13T01:27:00.045Z,9.95
2023-05-13T01:29:29.760Z,9.20
2023-05-13T01:32:00.577Z,8.18
2023-05-13T01:34:30.679Z,7.72
2023-05-13T01:37:01.094Z,8.73
2023-05-13T01:39:31.264Z,16.25
2023-05-13T01:42:04.485Z,11.05
2023-05-13T01:44:34.272Z,9.65
2023-05-13T01:47:03.719Z,9.55
2023-05-13T01:49:33.520Z,10.85
2023-05-13T01:52:04.376Z,9.32
2023-05-13T01:54:34.510Z,12.63
2023-05-13T01:57:08.733Z,9.68
2023-05-13T01:59:38.697Z,9.82
2023-05-13T02:02:08.235Z,14.68
2023-05-13T02:04:37.994Z,11.07
2023-05-13T02:07:07.573Z,9.70
2023-05-13T02:09:37.531Z,10.50
2023-05-13T02:12:08.990Z,11.20
2023-05-13T02:14:38.782Z,9.30
2023-05-13T02:17:08.194Z,11.20
2023-05-13T02:19:37.584Z,10.13
2023-05-13T02:22:07.290Z,13.52
2023-05-13T02:24:40.071Z,24.17
2023-05-13T02:27:12.944Z,10.25
2023-05-13T02:29:42.526Z,11.38
2023-05-13T02:32:12.082Z,10.20
2023-05-13T02:34:41.682Z,10.85
2023-05-13T02:37:11.050Z,11.35
2023-05-13T02:39:48.740Z,11.07
2023-05-13T02:42:18.820Z,10.15
2023-05-13T02:44:48.802Z,9.63
2023-05-13T02:47:19.012Z,11.15
2023-05-13T02:49:48.409Z,11.35
2023-05-13T02:52:17.829Z,12.23
2023-05-13T02:54:47.223Z,12.55
2023-05-13T02:57:17.370Z,8.95
2023-05-13T02:59:47.649Z,11.13
2023-05-13T03:02:17.333Z,12.60
2023-05-13T03:04:47.480Z,9.18
2023-05-13T03:07:16.938Z,9.45
2023-05-13T03:09:46.406Z,10.93
2023-05-13T03:12:15.979Z,15.07
2023-05-13T03:14:45.436Z,11.48
2023-05-13T03:17:14.893Z,11.20
2023-05-13T03:19:44.480Z,9.98
2023-05-13T03:22:13.913Z,10.90
2023-05-13T03:24:44.654Z,11.70
2023-05-13T03:27:15.037Z,10.73
2023-05-13T03:29:44.445Z,10.60
2023-05-13T03:32:15.142Z,11.25
2023-05-13T03:34:44.578Z,10.52
2023-05-13T03:37:14.266Z,13.43
2023-05-13T03:39:43.882Z,13.07
2023-05-13T03:42:13.648Z,14.63
2023-05-13T03:44:43.053Z,13.60
2023-05-13T03:47:13.785Z,12.07
2023-05-13T03:49:43.242Z,10.75
2023-05-13T03:52:12.742Z,12.07
2023-05-13T03:54:43.843Z,11.65
2023-05-13T03:57:13.205Z,9.85
2023-05-13T03:59:45.137Z,14.30
2023-05-13T04:02:15.649Z,11.73
2023-05-13T04:04:45.187Z,11.38
2023-05-13T04:07:14.746Z,12.70
2023-05-13T04:09:44.207Z,14.13
2023-05-13T04:12:15.928Z,11.98
2023-05-13T04:14:45.333Z,10.77
2023-05-13T04:17:14.790Z,11.07
2023-05-13T04:19:44.258Z,14.65
2023-05-13T04:22:14.933Z,13.00
2023-05-13T04:24:44.499Z,11.57
2023-05-13T04:27:13.911Z,12.15
2023-05-13T04:29:46.420Z,11.57
2023-05-13T04:32:21.765Z,11.88
2023-05-13T04:34:54.559Z,14.63
2023-05-13T04:37:25.799Z,11.45
2023-05-13T04:40:01.414Z,12.27
2023-05-13T04:42:30.946Z,13.27
2023-05-13T04:45:00.458Z,17.67
2023-05-13T04:47:29.933Z,10.98
2023-05-13T04:49:59.324Z,11.45
2023-05-13T04:52:29.241Z,11.65
2023-05-13T04:54:58.614Z,13.70
2023-05-13T04:57:29.710Z,13.15
2023-05-13T04:59:59.338Z,10.02
2023-05-13T05:02:30.146Z,14.50
2023-05-13T05:04:59.955Z,11.82
2023-05-13T05:07:29.606Z,15.35
2023-05-13T05:09:59.634Z,13.77
2023-05-13T05:12:31.360Z,13.60
2023-05-13T05:15:00.862Z,10.68
2023-05-13T05:17:32.954Z,15.20
2023-05-13T05:20:05.060Z,12.95
2023-05-13T05:22:35.472Z,12.73
2023-05-13T05:25:04.943Z,16.83
2023-05-13T05:27:34.390Z,12.10
2023-05-13T05:30:03.848Z,14.38
2023-05-13T05:32:35.698Z,11.88
2023-05-13T05:35:08.014Z,10.98
2023-05-13T05:37:37.642Z,11.85
2023-05-13T05:40:07.946Z,14.73
2023-05-13T05:42:41.645Z,10.73
2023-05-13T05:45:12.117Z,11.82
2023-05-13T05:47:42.009Z,10.90
2023-05-13T05:50:15.386Z,11.30
2023-05-13T05:52:44.797Z,14.32
2023-05-13T05:55:15.866Z,10.93
2023-05-13T05:57:45.567Z,11.88
2023-05-13T06:00:15.387Z,10.88
2023-05-13T06:02:45.265Z,11.10
2023-05-13T06:05:15.860Z,11.98
2023-05-13T06:07:46.079Z,13.50
2023-05-13T06:10:15.852Z,12.40
2023-05-13T06:12:45.403Z,12.00
2023-05-13T06:15:14.872Z,12.77
2023-05-13T06:17:47.339Z,11.82
2023-05-13T06:20:16.853Z,13.07
2023-05-13T06:22:48.890Z,11.80
2023-05-13T06:25:18.476Z,11.88
2023-05-13T06:27:47.903Z,11.30
2023-05-13T06:30:17.350Z,15.13
2023-05-13T06:33:00.027Z,11.60
2023-05-13T06:35:30.957Z,9.93
2023-05-13T06:38:01.575Z,10.85
2023-05-13T06:40:31.105Z,14.43
2023-05-13T06:43:00.745Z,13.15
2023-05-13T06:45:32.892Z,10.55
2023-05-13T06:48:02.808Z,12.15
2023-05-13T06:50:33.231Z,14.10
2023-05-13T06:53:02.701Z,12.45
2023-05-13T06:55:32.127Z,12.38
2023-05-13T06:58:01.552Z,16.70
2023-05-13T07:00:30.959Z,10.43
2023-05-13T07:03:00.402Z,11.60
2023-05-13T07:05:29.980Z,13.95
2023-05-13T07:07:59.379Z,11.50
2023-05-13T07:10:28.847Z,9.80
2023-05-13T07:12:58.274Z,13.25
2023-05-13T07:15:27.671Z,11.30
2023-05-13T07:17:57.134Z,17.60
2023-05-13T07:20:27.327Z,12.65
2023-05-13T07:22:56.778Z,11.18
2023-05-13T07:25:26.202Z,14.95
2023-05-13T07:27:55.670Z,11.10
2023-05-13T07:30:25.423Z,11.57
2023-05-13T07:32:54.967Z,10.23
2023-05-13T07:35:24.830Z,11.55
2023-05-13T07:37:54.353Z,13.77
2023-05-13T07:40:23.893Z,12.27
2023-05-13T07:42:53.331Z,10.38
2023-05-13T07:45:23.441Z,11.38
2023-05-13T07:47:53.088Z,10.65
2023-05-13T07:50:22.490Z,8.80
2023-05-13T07:52:52.099Z,12.70
2023-05-13T07:55:21.914Z,11.30
2023-05-13T07:57:51.480Z,11.10
2023-05-13T08:00:21.050Z,10.77
2023-05-13T08:02:50.591Z,9.10
2023-05-13T08:05:20.219Z,9.18
2023-05-13T08:07:49.866Z,10.30
2023-05-13T08:10:19.320Z,14.35
2023-05-13T08:12:53.713Z,9.45
2023-05-13T08:15:23.412Z,11.40
2023-05-13T08:17:54.011Z,10.23
2023-05-13T08:20:29.976Z,9.27
2023-05-13T08:23:02.173Z,12.18
2023-05-13T08:25:31.656Z,11.40
2023-05-13T08:28:01.065Z,9.30
2023-05-13T08:30:30.449Z,10.38
2023-05-13T08:32:59.829Z,10.43
2023-05-13T08:35:29.255Z,13.30
2023-05-13T08:37:58.705Z,9.63
2023-05-13T08:40:28.233Z,10.98
2023-05-13T08:42:59.905Z,12.27
2023-05-13T08:45:31.652Z,11.48
2023-05-13T08:48:02.787Z,10.23
2023-05-13T08:50:32.567Z,10.20
2023-05-13T08:53:02.226Z,12.80
2023-05-13T08:55:31.706Z,11.30
2023-05-13T08:58:01.163Z,10.35
2023-05-13T09:00:30.515Z,9.68
2023-05-13T09:03:02.603Z,9.23
2023-05-13T09:08:01.786Z,10.73
2023-05-13T09:10:31.159Z,10.90
2023-05-13T09:13:01.972Z,10.25
2023-05-13T09:15:32.255Z,8.73
2023-05-13T09:18:06.951Z,11.15
2023-05-13T09:20:36.987Z,9.45
2023-05-13T09:23:09.162Z,10.95
2023-05-13T09:28:09.084Z,8.93
2023-05-13T09:30:40.413Z,10.48
2023-05-13T09:33:11.594Z,10.13
2023-05-13T09:35:42.555Z,12.03
2023-05-13T09:38:16.368Z,11.27
2023-05-13T09:41:02.215Z,8.85
2023-05-13T09:43:37.421Z,11.48
2023-05-13T09:46:07.487Z,8.48
2023-05-13T09:48:38.248Z,10.88
2023-05-13T09:51:08.111Z,8.93
2023-05-13T09:53:37.769Z,12.65
2023-05-13T09:56:07.325Z,11.18
2023-05-13T09:58:36.743Z,9.10
2023-05-13T10:01:06.875Z,7.30
2023-05-13T10:03:36.483Z,7.38
2023-05-13T10:06:06.386Z,8.98
2023-05-13T10:08:36.378Z,9.50
2023-05-13T10:11:05.863Z,10.60
2023-05-13T10:13:36.308Z,11.52
2023-05-13T10:16:06.177Z,9.38
2023-05-13T10:18:35.742Z,10.40
2023-05-13T10:21:06.342Z,7.57
2023-05-13T10:23:36.096Z,7.18
2023-05-13T10:26:06.013Z,7.00
2023-05-13T10:28:35.608Z,6.28
2023-05-13T10:31:05.049Z,9.82
2023-05-13T10:33:34.763Z,7.90
2023-05-13T10:36:07.639Z,12.20
2023-05-13T10:38:37.027Z,10.80
2023-05-13T10:41:09.667Z,8.68
2023-05-13T10:43:39.442Z,6.47
2023-05-13T10:46:10.057Z,7.88
2023-05-13T10:48:46.172Z,5.88
2023-05-13T10:51:19.395Z,7.70
2023-05-13T10:53:53.219Z,7.32
2023-05-13T10:56:24.412Z,9.02
2023-05-13T10:59:01.530Z,6.20
2023-05-13T11:01:32.286Z,5.85
2023-05-13T11:04:06.325Z,8.32
2023-05-13T11:06:39.613Z,9.20
2023-05-13T11:09:16.440Z,7.45
2023-05-13T11:11:50.152Z,6.30
2023-05-13T11:14:23.795Z,6.60
2023-05-13T11:16:56.219Z,5.60
2023-05-13T11:19:30.013Z,6.88
2023-05-13T11:22:00.386Z,6.65
2023-05-13T11:24:29.821Z,6.45
2023-05-13T11:27:00.791Z,3.97
2023-05-13T11:29:31.409Z,7.07
2023-05-13T11:32:01.365Z,7.82
2023-05-13T11:34:31.085Z,6.85
2023-05-13T11:37:06.210Z,5.38
2023-05-13T11:39:36.243Z,5.35
2023-05-13T11:42:09.479Z,8.95
2023-05-13T11:44:39.291Z,5.28
2023-05-13T11:47:08.919Z,6.07
2023-05-13T11:49:45.299Z,11.65
2023-05-13T11:52:22.269Z,7.60
2023-05-13T11:54:53.703Z,6.40
2023-05-13T11:57:23.175Z,12.38
2023-05-13T12:00:02.433Z,7.45
2023-05-13T12:02:33.896Z,7.78
2023-05-13T12:05:07.359Z,9.38
2023-05-13T12:07:37.704Z,7.55
2023-05-13T12:10:08.008Z,3.72
2023-05-13T12:12:42.352Z,4.40
2023-05-13T12:15:13.877Z,6.80
2023-05-13T12:17:43.657Z,4.65
2023-05-13T12:20:22.964Z,8.98
2023-05-13T12:22:53.542Z,8.43
2023-05-13T12:25:35.313Z,4.75
2023-05-13T12:28:11.118Z,5.38
2023-05-13T12:30:44.999Z,6.70
2023-05-13T12:33:37.681Z,6.20
2023-05-13T12:36:21.845Z,6.35
2023-05-13T12:39:11.781Z,7.47
2023-05-13T12:41:44.579Z,6.00
2023-05-13T12:44:17.282Z,7.90
2023-05-13T12:46:57.367Z,4.13
2023-05-13T12:49:26.937Z,6.70
2023-05-13T12:51:56.960Z,5.82
2023-05-13T12:54:26.426Z,7.20
2023-05-13T12:56:55.898Z,7.13
2023-05-13T12:59:26.752Z,4.65
2023-05-13T13:01:56.162Z,4.95
2023-05-13T13:04:28.534Z,6.88
2023-05-13T13:06:57.984Z,9.35
2023-05-13T13:09:27.410Z,5.78
2023-05-13T13:11:56.997Z,6.38
2023-05-13T13:14:26.440Z,12.85
2023-05-13T13:16:55.868Z,5.80
2023-05-13T13:19:25.396Z,5.82
2023-05-13T13:21:54.851Z,5.78
2023-05-13T13:24:24.222Z,4.32
2023-05-13T13:26:54.746Z,5.45
2023-05-13T13:29:25.216Z,8.00
2023-05-13T13:31:54.613Z,3.88
2023-05-13T13:34:24.008Z,6.85
2023-05-13T13:36:53.388Z,5.82
2023-05-13T13:39:22.784Z,5.45
2023-05-13T13:41:52.206Z,6.72
2023-05-13T13:44:21.599Z,5.93
2023-05-13T13:46:50.961Z,6.13
2023-05-13T13:49:24.050Z,5.07
2023-05-13T13:51:56.469Z,5.00
2023-05-13T13:54:25.965Z,6.60
2023-05-13T13:56:55.427Z,4.43
2023-05-13T13:59:24.841Z,7.90
2023-05-13T14:01:54.403Z,8.48
2023-05-13T14:04:27.581Z,6.32
2023-05-13T14:06:57.919Z,7.85
2023-05-13T14:09:27.362Z,6.55
2023-05-13T14:11:56.737Z,5.15
2023-05-13T14:14:26.454Z,5.00
2023-05-13T14:16:55.868Z,9.65
2023-05-13T14:19:25.245Z,6.38
2023-05-13T14:21:54.636Z,5.03
2023-05-13T14:24:24.048Z,4.75
2023-05-13T14:26:53.701Z,5.40
2023-05-13T14:29:23.091Z,9.07
2023-05-13T14:31:52.589Z,4.80
2023-05-13T14:34:23.361Z,4.82
2023-05-13T14:36:53.782Z,5.90
2023-05-13T14:39:23.296Z,4.80
2023-05-13T14:41:52.703Z,9.23
2023-05-13T14:44:22.039Z,3.38
2023-05-13T14:46:51.531Z,6.43
2023-05-13T14:49:20.995Z,6.55
2023-05-13T14:51:50.440Z,7.00
2023-05-13T14:54:20.409Z,5.65
2023-05-13T14:56:49.906Z,5.47
2023-05-13T14:59:19.365Z,6.18
2023-05-13T15:01:48.808Z,6.22
2023-05-13T15:04:18.269Z,4.97
2023-05-13T15:06:47.683Z,5.90
2023-05-13T15:09:18.192Z,3.83
2023-05-13T15:11:47.570Z,7.93
2023-05-13T15:14:18.196Z,6.00
2023-05-13T15:16:47.709Z,3.60
2023-05-13T15:19:17.137Z,4.95
2023-05-13T15:21:46.561Z,5.75
2023-05-13T15:24:15.996Z,3.67
2023-05-13T15:26:45.430Z,3.67
2023-05-13T15:29:15.024Z,5.28
2023-05-13T15:31:44.464Z,6.63
2023-05-13T15:34:13.844Z,6.38
2023-05-13T15:36:43.194Z,10.60
2023-05-13T15:39:12.953Z,7.18
2023-05-13T15:41:42.418Z,6.43
2023-05-13T15:44:12.151Z,4.30
2023-05-13T15:46:41.802Z,6.30
2023-05-13T15:49:11.230Z,8.02
2023-05-13T15:51:40.585Z,3.38
2023-05-13T15:54:10.008Z,7.22
2023-05-13T15:56:39.905Z,3.95
2023-05-13T15:59:09.287Z,5.38
2023-05-13T16:01:40.467Z,6.28
2023-05-13T16:04:10.413Z,5.03
2023-05-13T16:06:39.866Z,3.35
2023-05-13T16:09:09.575Z,4.07
2023-05-13T16:11:38.990Z,7.80
2023-05-13T16:14:08.842Z,4.38
2023-05-13T16:16:38.500Z,6.65
2023-05-13T16:19:08.862Z,4.53
2023-05-13T16:21:38.404Z,5.20
2023-05-13T16:24:07.871Z,7.07
2023-05-13T16:26:37.492Z,4.05
2023-05-13T16:29:06.944Z,7.22
2023-05-13T16:31:36.449Z,7.25
2023-05-13T16:34:05.924Z,5.40
2023-05-13T16:36:35.404Z,6.18
2023-05-13T16:39:05.428Z,3.03
2023-05-13T16:41:35.489Z,8.68
2023-05-13T16:44:05.048Z,7.68
2023-05-13T16:46:36.029Z,5.55
2023-05-13T16:49:05.876Z,4.97
2023-05-13T16:51:35.393Z,6.18
2023-05-13T16:54:04.824Z,5.03
2023-05-13T16:56:34.245Z,3.85
2023-05-13T16:59:03.604Z,5.63
2023-05-13T17:01:33.219Z,4.95
2023-05-13T17:04:02.721Z,6.68
2023-05-13T17:06:32.180Z,6.93
2023-05-13T17:09:01.554Z,6.05
2023-05-13T17:11:31.054Z,4.95
2023-05-13T17:14:00.565Z,6.68
2023-05-13T17:16:30.104Z,5.43
2023-05-13T17:18:59.628Z,5.00
2023-05-13T17:21:29.225Z,4.82
2023-05-13T17:23:58.997Z,6.03
2023-05-13T17:26:29.190Z,5.88
2023-05-13T17:28:59.594Z,4.03
2023-05-13T17:31:29.543Z,3.63
2023-05-13T17:33:59.060Z,6.32
2023-05-13T17:36:28.522Z,4.57
2023-05-13T17:38:57.965Z,6.20
2023-05-13T17:41:27.451Z,5.35
2023-05-13T17:43:56.861Z,4.88
2023-05-13T17:46:26.388Z,4.38
2023-05-13T17:48:55.938Z,6.95
2023-05-13T17:51:25.574Z,6.40
2023-05-13T17:53:55.023Z,8.93
2023-05-13T17:56:25.056Z,6.97
2023-05-13T17:58:54.481Z,4.78
2023-05-13T18:01:24.033Z,6.72
2023-05-13T18:03:53.520Z,3.92
2023-05-13T18:06:22.953Z,3.63
2023-05-13T18:08:52.425Z,5.72
2023-05-13T18:11:22.207Z,4.07
2023-05-13T18:13:51.664Z,6.28
2023-05-13T18:16:21.205Z,4.47
2023-05-13T18:18:51.326Z,8.00
2023-05-13T18:21:20.856Z,5.93
2023-05-13T18:23:50.309Z,3.05
2023-05-13T18:26:19.738Z,5.47
2023-05-13T18:28:49.084Z,4.28
2023-05-13T18:31:18.744Z,6.50
2023-05-13T18:33:48.233Z,5.68
2023-05-13T18:36:17.676Z,5.45
2023-05-13T18:38:48.116Z,6.43
2023-05-13T18:41:17.559Z,5.32
2023-05-13T18:43:46.979Z,5.47
2023-05-13T18:46:17.797Z,5.45
2023-05-13T18:48:47.260Z,5.55
2023-05-13T18:51:17.540Z,6.85
2023-05-13T18:53:48.136Z,3.92
2023-05-13T18:56:17.510Z,5.70
2023-05-13T18:58:47.657Z,8.30
2023-05-13T19:01:18.211Z,5.28
2023-05-13T19:03:47.983Z,9.52
2023-05-13T19:06:17.680Z,4.75
2023-05-13T19:08:47.114Z,5.25
2023-05-13T19:11:16.623Z,12.80
2023-05-13T19:13:47.295Z,4.20
2023-05-13T19:16:17.655Z,8.30
2023-05-13T19:18:47.169Z,7.25
2023-05-13T19:21:16.633Z,7.20
2023-05-13T19:23:46.216Z,6.82
2023-05-13T19:26:15.636Z,7.70
2023-05-13T19:28:45.815Z,6.93
2023-05-13T19:31:15.375Z,7.53
2023-05-13T19:33:46.182Z,8.07
2023-05-13T19:36:15.928Z,8.40
2023-05-13T19:38:45.386Z,7.82
2023-05-13T19:41:14.772Z,9.48
2023-05-13T19:43:44.171Z,7.72
2023-05-13T19:46:13.797Z,8.55
2023-05-13T19:48:43.543Z,8.55
2023-05-13T19:51:12.959Z,5.88
2023-05-13T19:53:43.940Z,8.25
2023-05-13T19:56:13.806Z,8.50
2023-05-13T19:58:43.298Z,6.57
2023-05-13T20:01:15.041Z,8.05
2023-05-13T20:03:44.605Z,8.25
2023-05-13T20:06:14.345Z,8.82
2023-05-13T20:08:46.072Z,8.25
2023-05-13T20:11:15.536Z,7.75
2023-05-13T20:13:44.897Z,11.93
2023-05-13T20:16:14.356Z,9.50
2023-05-13T20:18:44.073Z,8.82
2023-05-13T20:21:13.853Z,8.82
2023-05-13T20:23:43.371Z,6.20
2023-05-13T20:26:13.351Z,8.80
2023-05-13T20:28:42.830Z,10.70
2023-05-13T20:31:12.354Z,8.05
2023-05-13T20:33:43.168Z,7.40
2023-05-13T20:36:12.617Z,9.57
2023-05-13T20:38:43.428Z,6.60
2023-05-13T20:41:12.832Z,11.50
2023-05-13T20:43:43.796Z,8.93
2023-05-13T20:46:17.010Z,6.13
2023-05-13T20:48:48.086Z,8.18
2023-05-13T20:51:17.644Z,9.68
2023-05-13T20:53:47.561Z,12.02
2023-05-13T20:56:17.597Z,8.30
2023-05-13T20:58:47.019Z,8.10
2023-05-13T21:01:16.826Z,12.40
2023-05-13T21:03:50.140Z,8.40
2023-05-13T21:06:19.701Z,7.60
2023-05-13T21:09:06.246Z,11.20
2023-05-13T21:11:35.749Z,8.25
2023-05-13T21:14:05.240Z,7.28
2023-05-13T21:16:36.166Z,8.38
2023-05-13T21:19:05.776Z,7.45
2023-05-13T21:21:35.205Z,9.90
2023-05-13T21:24:04.601Z,5.57
2023-05-13T21:26:34.086Z,8.90
2023-05-13T21:29:03.481Z,7.50
2023-05-13T21:31:32.938Z,7.15
2023-05-13T21:34:02.406Z,9.27
2023-05-13T21:36:32.057Z,7.43
2023-05-13T21:39:01.484Z,5.85
2023-05-13T21:41:30.867Z,6.50
2023-05-13T21:44:00.226Z,8.23
2023-05-13T21:46:29.766Z,8.75
2023-05-13T21:48:59.205Z,6.70
2023-05-13T21:51:28.699Z,9.13
2023-05-13T21:53:58.063Z,10.70
2023-05-13T21:56:27.471Z,7.45
2023-05-13T21:58:56.879Z,6.95
2023-05-13T22:01:26.402Z,7.95
2023-05-13T22:03:55.867Z,10.27
2023-05-13T22:06:25.247Z,8.23
2023-05-13T22:08:54.772Z,8.32
2023-05-13T22:11:24.199Z,7.82
2023-05-13T22:13:53.775Z,9.02
2023-05-13T22:16:23.168Z,6.65
2023-05-13T22:18:54.344Z,8.10
2023-05-13T22:21:23.862Z,9.15
2023-05-13T22:23:53.270Z,6.38
2023-05-13T22:26:22.662Z,6.78
2023-05-13T22:28:52.157Z,10.40
2023-05-13T22:31:21.621Z,10.18
2023-05-13T22:33:50.985Z,7.88
2023-05-13T22:36:20.353Z,7.05
2023-05-13T22:38:49.775Z,13.60
2023-05-13T22:41:20.930Z,8.15
2023-05-13T22:43:50.330Z,10.10
2023-05-13T22:46:19.834Z,10.57
2023-05-13T22:48:49.273Z,8.18
2023-05-13T22:51:18.957Z,7.70
2023-05-13T22:53:48.491Z,8.90
2023-05-13T22:56:17.844Z,11.48
2023-05-13T22:58:47.227Z,7.63
2023-05-13T23:01:17.220Z,14.65
2023-05-13T23:03:46.725Z,9.52
2023-05-13T23:06:16.274Z,14.88
2023-05-13T23:08:45.616Z,8.40
2023-05-13T23:11:14.973Z,11.43
2023-05-13T23:13:44.361Z,11.40
2023-05-13T23:16:13.779Z,10.48
2023-05-13T23:18:43.168Z,9.30
2023-05-13T23:21:12.516Z,10.35
2023-05-13T23:23:41.950Z,11.45
2023-05-13T23:26:11.267Z,9.50
2023-05-13T23:28:40.685Z,11.63
2023-05-13T23:31:10.160Z,8.73
2023-05-13T23:33:39.575Z,14.95
2023-05-13T23:36:09.107Z,9.88
2023-05-13T23:38:38.432Z,10.00
2023-05-13T23:41:07.806Z,9.63
2023-05-13T23:43:37.138Z,13.68
2023-05-13T23:46:06.701Z,7.25
2023-05-13T23:48:36.117Z,9.18
2023-05-13T23:51:05.524Z,10.20
2023-05-13T23:53:34.989Z,11.20
2023-05-13T23:56:04.455Z,10.98
2023-05-13T23:58:33.888Z,10.57
